sensor_id;sensor_type;location;lat;lon;timestamp;pressure;altitude;pressure_sealevel;temperature;humidity
38806;BME280;25635;51.146;17.162;2023-07-22T00:01:09;99591.79;;;16.78;76.68
38806;BME280;25635;51.146;17.162;2023-07-22T00:03:35;99593.80;;;16.77;76.67
38806;BME280;25635;51.146;17.162;2023-07-22T00:06:06;99587.85;;;16.72;76.53
38806;BME280;25635;51.146;17.162;2023-07-22T00:08:33;99589.05;;;16.69;76.53
38806;BME280;25635;51.146;17.162;2023-07-22T00:10:59;99599.94;;;16.65;76.68
38806;BME280;25635;51.146;17.162;2023-07-22T00:13:25;99601.38;;;16.60;76.46
38806;BME280;25635;51.146;17.162;2023-07-22T00:15:56;99603.00;;;16.55;76.37
38806;BME280;25635;51.146;17.162;2023-07-22T00:18:22;99604.33;;;16.49;76.63
38806;BME280;25635;51.146;17.162;2023-07-22T00:20:49;99604.81;;;16.46;76.55
38806;BME280;25635;51.146;17.162;2023-07-22T00:23:16;99605.84;;;16.42;76.52
38806;BME280;25635;51.146;17.162;2023-07-22T00:25:42;99601.88;;;16.35;76.39
38806;BME280;25635;51.146;17.162;2023-07-22T00:28:08;99599.28;;;16.30;76.53
38806;BME280;25635;51.146;17.162;2023-07-22T00:30:34;99598.42;;;16.25;76.51
38806;BME280;25635;51.146;17.162;2023-07-22T00:33:00;99592.28;;;16.20;76.71
38806;BME280;25635;51.146;17.162;2023-07-22T00:35:26;99604.13;;;16.19;76.89
38806;BME280;25635;51.146;17.162;2023-07-22T00:37:52;99612.86;;;16.16;76.94
38806;BME280;25635;51.146;17.162;2023-07-22T00:40:18;99615.13;;;16.12;76.76
38806;BME280;25635;51.146;17.162;2023-07-22T00:42:45;99615.41;;;16.10;76.68
38806;BME280;25635;51.146;17.162;2023-07-22T00:45:11;99618.07;;;16.05;76.71
38806;BME280;25635;51.146;17.162;2023-07-22T00:47:37;99626.17;;;15.99;76.84
38806;BME280;25635;51.146;17.162;2023-07-22T00:50:06;99627.61;;;15.94;76.81
38806;BME280;25635;51.146;17.162;2023-07-22T00:52:33;99623.61;;;15.89;77.08
38806;BME280;25635;51.146;17.162;2023-07-22T00:54:59;99621.85;;;15.84;77.15
38806;BME280;25635;51.146;17.162;2023-07-22T00:57:26;99626.16;;;15.82;77.29
38806;BME280;25635;51.146;17.162;2023-07-22T00:59:51;99629.70;;;15.76;77.20
38806;BME280;25635;51.146;17.162;2023-07-22T01:02:18;99629.19;;;15.72;77.40
38806;BME280;25635;51.146;17.162;2023-07-22T01:04:45;99619.55;;;15.66;77.59
38806;BME280;25635;51.146;17.162;2023-07-22T01:07:11;99620.23;;;15.62;77.56
38806;BME280;25635;51.146;17.162;2023-07-22T01:09:39;99620.48;;;15.59;77.78
38806;BME280;25635;51.146;17.162;2023-07-22T01:12:07;99618.34;;;15.55;77.75
38806;BME280;25635;51.146;17.162;2023-07-22T01:14:34;99615.48;;;15.53;78.05
38806;BME280;25635;51.146;17.162;2023-07-22T01:17:05;99613.98;;;15.50;78.12
38806;BME280;25635;51.146;17.162;2023-07-22T01:19:32;99616.92;;;15.47;78.33
38806;BME280;25635;51.146;17.162;2023-07-22T01:22:04;99616.10;;;15.45;78.36
38806;BME280;25635;51.146;17.162;2023-07-22T01:24:31;99613.84;;;15.45;78.28
38806;BME280;25635;51.146;17.162;2023-07-22T01:26:57;99617.85;;;15.45;78.31
38806;BME280;25635;51.146;17.162;2023-07-22T01:29:24;99615.52;;;15.47;78.24
38806;BME280;25635;51.146;17.162;2023-07-22T01:31:52;99621.14;;;15.46;78.07
38806;BME280;25635;51.146;17.162;2023-07-22T01:34:20;99627.74;;;15.44;77.95
38806;BME280;25635;51.146;17.162;2023-07-22T01:36:46;99628.94;;;15.40;78.00
38806;BME280;25635;51.146;17.162;2023-07-22T01:39:17;99632.08;;;15.36;77.99
38806;BME280;25635;51.146;17.162;2023-07-22T01:41:44;99630.39;;;15.29;78.33
38806;BME280;25635;51.146;17.162;2023-07-22T01:44:10;99633.59;;;15.18;78.72
38806;BME280;25635;51.146;17.162;2023-07-22T01:46:37;99634.58;;;15.10;78.60
38806;BME280;25635;51.146;17.162;2023-07-22T01:49:10;99639.58;;;15.03;79.08
38806;BME280;25635;51.146;17.162;2023-07-22T01:51:36;99643.73;;;14.94;79.14
38806;BME280;25635;51.146;17.162;2023-07-22T01:54:09;99646.84;;;14.91;79.17
38806;BME280;25635;51.146;17.162;2023-07-22T01:56:36;99654.46;;;14.89;79.06
38806;BME280;25635;51.146;17.162;2023-07-22T01:59:02;99659.89;;;14.84;79.39
38806;BME280;25635;51.146;17.162;2023-07-22T02:01:28;99656.05;;;14.78;79.63
38806;BME280;25635;51.146;17.162;2023-07-22T02:03:54;99657.13;;;14.72;79.98
38806;BME280;25635;51.146;17.162;2023-07-22T02:06:21;99659.21;;;14.67;80.10
38806;BME280;25635;51.146;17.162;2023-07-22T02:08:47;99665.50;;;14.63;80.30
38806;BME280;25635;51.146;17.162;2023-07-22T02:11:12;99666.27;;;14.61;80.29
38806;BME280;25635;51.146;17.162;2023-07-22T02:13:38;99664.71;;;14.60;80.35
38806;BME280;25635;51.146;17.162;2023-07-22T02:16:05;99666.84;;;14.59;80.49
38806;BME280;25635;51.146;17.162;2023-07-22T02:18:31;99671.28;;;14.58;80.39
38806;BME280;25635;51.146;17.162;2023-07-22T02:20:57;99667.84;;;14.56;80.63
38806;BME280;25635;51.146;17.162;2023-07-22T02:23:24;99672.65;;;14.52;80.80
38806;BME280;25635;51.146;17.162;2023-07-22T02:25:51;99670.45;;;14.49;81.01
38806;BME280;25635;51.146;17.162;2023-07-22T02:28:17;99667.97;;;14.46;81.31
38806;BME280;25635;51.146;17.162;2023-07-22T02:30:48;99667.58;;;14.41;81.44
38806;BME280;25635;51.146;17.162;2023-07-22T02:33:15;99670.92;;;14.40;81.29
38806;BME280;25635;51.146;17.162;2023-07-22T02:35:41;99677.01;;;14.37;81.70
38806;BME280;25635;51.146;17.162;2023-07-22T02:38:08;99677.30;;;14.33;81.85
38806;BME280;25635;51.146;17.162;2023-07-22T02:40:37;99676.69;;;14.31;82.17
38806;BME280;25635;51.146;17.162;2023-07-22T02:43:03;99676.73;;;14.29;82.33
38806;BME280;25635;51.146;17.162;2023-07-22T02:45:30;99682.68;;;14.29;82.46
38806;BME280;25635;51.146;17.162;2023-07-22T02:47:56;99681.06;;;14.30;82.61
38806;BME280;25635;51.146;17.162;2023-07-22T02:50:22;99681.77;;;14.30;82.66
38806;BME280;25635;51.146;17.162;2023-07-22T02:52:47;99681.44;;;14.30;83.10
38806;BME280;25635;51.146;17.162;2023-07-22T02:55:15;99686.83;;;14.32;83.20
38806;BME280;25635;51.146;17.162;2023-07-22T02:57:46;99685.30;;;14.35;83.20
38806;BME280;25635;51.146;17.162;2023-07-22T03:00:13;99689.02;;;14.40;82.99
38806;BME280;25635;51.146;17.162;2023-07-22T03:02:43;99685.87;;;14.45;83.41
38806;BME280;25635;51.146;17.162;2023-07-22T03:05:09;99685.29;;;14.47;83.56
38806;BME280;25635;51.146;17.162;2023-07-22T03:07:37;99690.66;;;14.49;83.51
38806;BME280;25635;51.146;17.162;2023-07-22T03:10:04;99689.90;;;14.50;83.30
38806;BME280;25635;51.146;17.162;2023-07-22T03:12:31;99692.13;;;14.52;83.43
38806;BME280;25635;51.146;17.162;2023-07-22T03:14:57;99698.40;;;14.54;83.55
38806;BME280;25635;51.146;17.162;2023-07-22T03:17:23;99698.20;;;14.54;83.63
38806;BME280;25635;51.146;17.162;2023-07-22T03:19:50;99697.14;;;14.55;83.54
38806;BME280;25635;51.146;17.162;2023-07-22T03:22:17;99697.65;;;14.56;83.57
38806;BME280;25635;51.146;17.162;2023-07-22T03:24:43;99700.20;;;14.58;83.50
38806;BME280;25635;51.146;17.162;2023-07-22T03:27:10;99703.81;;;14.61;83.21
38806;BME280;25635;51.146;17.162;2023-07-22T03:29:37;99707.58;;;14.64;83.27
38806;BME280;25635;51.146;17.162;2023-07-22T03:32:04;99710.14;;;14.66;83.36
38806;BME280;25635;51.146;17.162;2023-07-22T03:34:31;99713.56;;;14.68;83.40
38806;BME280;25635;51.146;17.162;2023-07-22T03:36:57;99715.90;;;14.72;83.27
38806;BME280;25635;51.146;17.162;2023-07-22T03:39:23;99718.79;;;14.75;83.22
38806;BME280;25635;51.146;17.162;2023-07-22T03:41:49;99721.30;;;14.79;83.10
38806;BME280;25635;51.146;17.162;2023-07-22T03:44:15;99720.84;;;14.82;83.19
38806;BME280;25635;51.146;17.162;2023-07-22T03:46:41;99720.75;;;14.85;83.24
38806;BME280;25635;51.146;17.162;2023-07-22T03:49:07;99718.45;;;14.86;83.23
38806;BME280;25635;51.146;17.162;2023-07-22T03:51:33;99717.33;;;14.88;83.00
38806;BME280;25635;51.146;17.162;2023-07-22T03:53:59;99719.73;;;14.89;83.07
38806;BME280;25635;51.146;17.162;2023-07-22T03:56:26;99718.70;;;14.89;82.77
38806;BME280;25635;51.146;17.162;2023-07-22T03:58:52;99722.30;;;14.91;82.93
38806;BME280;25635;51.146;17.162;2023-07-22T04:01:19;99725.05;;;14.93;82.74
38806;BME280;25635;51.146;17.162;2023-07-22T04:03:45;99730.66;;;14.98;82.82
38806;BME280;25635;51.146;17.162;2023-07-22T04:06:11;99729.64;;;15.03;82.70
38806;BME280;25635;51.146;17.162;2023-07-22T04:08:37;99734.39;;;15.08;82.61
38806;BME280;25635;51.146;17.162;2023-07-22T04:11:03;99736.20;;;15.11;82.58
38806;BME280;25635;51.146;17.162;2023-07-22T04:13:29;99738.39;;;15.14;82.31
38806;BME280;25635;51.146;17.162;2023-07-22T04:15:55;99740.20;;;15.17;82.16
38806;BME280;25635;51.146;17.162;2023-07-22T04:18:21;99737.27;;;15.21;82.18
38806;BME280;25635;51.146;17.162;2023-07-22T04:20:47;99737.48;;;15.25;82.12
38806;BME280;25635;51.146;17.162;2023-07-22T04:23:16;99740.70;;;15.29;82.05
38806;BME280;25635;51.146;17.162;2023-07-22T04:25:43;99742.86;;;15.32;82.30
38806;BME280;25635;51.146;17.162;2023-07-22T04:28:09;99746.22;;;15.36;82.19
38806;BME280;25635;51.146;17.162;2023-07-22T04:30:36;99744.64;;;15.42;82.08
38806;BME280;25635;51.146;17.162;2023-07-22T04:33:03;99743.94;;;15.51;82.23
38806;BME280;25635;51.146;17.162;2023-07-22T04:35:32;99748.58;;;15.59;81.88
38806;BME280;25635;51.146;17.162;2023-07-22T04:37:59;99748.29;;;15.67;81.87
38806;BME280;25635;51.146;17.162;2023-07-22T04:40:25;99745.35;;;15.77;81.69
38806;BME280;25635;51.146;17.162;2023-07-22T04:42:52;99744.98;;;15.87;81.46
38806;BME280;25635;51.146;17.162;2023-07-22T04:45:18;99748.52;;;15.96;81.11
38806;BME280;25635;51.146;17.162;2023-07-22T04:47:44;99748.02;;;16.04;80.93
38806;BME280;25635;51.146;17.162;2023-07-22T04:50:13;99748.98;;;16.11;80.87
38806;BME280;25635;51.146;17.162;2023-07-22T06:56:21;99836.20;;;21.38;64.56
38806;BME280;25635;51.146;17.162;2023-07-22T06:58:47;99845.64;;;21.62;63.62
38806;BME280;25635;51.146;17.162;2023-07-22T07:01:13;99849.18;;;21.76;62.25
38806;BME280;25635;51.146;17.162;2023-07-22T07:03:39;99852.60;;;21.88;61.64
38806;BME280;25635;51.146;17.162;2023-07-22T07:06:05;99856.36;;;21.90;61.14
38806;BME280;25635;51.146;17.162;2023-07-22T07:08:31;99857.96;;;21.93;61.40
38806;BME280;25635;51.146;17.162;2023-07-22T07:10:59;99866.09;;;21.99;60.87
38806;BME280;25635;51.146;17.162;2023-07-22T07:13:26;99865.92;;;22.02;60.04
38806;BME280;25635;51.146;17.162;2023-07-22T07:15:52;99870.96;;;22.10;60.81
38806;BME280;25635;51.146;17.162;2023-07-22T07:18:18;99872.05;;;22.21;60.49
38806;BME280;25635;51.146;17.162;2023-07-22T07:20:44;99875.30;;;22.26;59.94
38806;BME280;25635;51.146;17.162;2023-07-22T07:23:10;99880.64;;;22.29;58.95
38806;BME280;25635;51.146;17.162;2023-07-22T07:25:36;99883.02;;;22.25;58.95
38806;BME280;25635;51.146;17.162;2023-07-22T07:28:03;99886.29;;;22.24;59.14
38806;BME280;25635;51.146;17.162;2023-07-22T07:30:29;99886.93;;;22.22;59.41
38806;BME280;25635;51.146;17.162;2023-07-22T07:32:55;99892.72;;;22.23;58.85
38806;BME280;25635;51.146;17.162;2023-07-22T07:35:20;99890.81;;;22.25;59.26
38806;BME280;25635;51.146;17.162;2023-07-22T07:37:46;99893.54;;;22.30;59.23
38806;BME280;25635;51.146;17.162;2023-07-22T07:40:12;99893.96;;;22.29;58.41
38806;BME280;25635;51.146;17.162;2023-07-22T07:42:38;99890.51;;;22.30;58.56
38806;BME280;25635;51.146;17.162;2023-07-22T07:45:05;99889.64;;;22.39;58.49
38806;BME280;25635;51.146;17.162;2023-07-22T07:47:31;99897.30;;;22.47;58.28
38806;BME280;25635;51.146;17.162;2023-07-22T07:49:57;99893.71;;;22.51;57.45
38806;BME280;25635;51.146;17.162;2023-07-22T07:52:22;99892.98;;;22.57;58.35
38806;BME280;25635;51.146;17.162;2023-07-22T07:54:48;99887.35;;;22.67;57.90
38806;BME280;25635;51.146;17.162;2023-07-22T07:57:14;99886.12;;;22.78;57.28
38806;BME280;25635;51.146;17.162;2023-07-22T07:59:40;99893.50;;;22.91;56.39
38806;BME280;25635;51.146;17.162;2023-07-22T08:02:06;99897.77;;;22.96;56.06
38806;BME280;25635;51.146;17.162;2023-07-22T08:04:35;99897.02;;;23.03;55.90
38806;BME280;25635;51.146;17.162;2023-07-22T08:07:01;99900.81;;;23.10;55.20
38806;BME280;25635;51.146;17.162;2023-07-22T08:09:27;99901.41;;;23.20;55.54
38806;BME280;25635;51.146;17.162;2023-07-22T08:11:53;99905.72;;;23.33;55.90
38806;BME280;25635;51.146;17.162;2023-07-22T08:14:19;99911.73;;;23.47;54.38
38806;BME280;25635;51.146;17.162;2023-07-22T08:16:44;99912.42;;;23.39;54.25
38806;BME280;25635;51.146;17.162;2023-07-22T08:19:10;99920.44;;;23.42;54.10
38806;BME280;25635;51.146;17.162;2023-07-22T08:21:36;99916.77;;;23.49;54.39
38806;BME280;25635;51.146;17.162;2023-07-22T08:24:02;99918.86;;;23.63;54.60
38806;BME280;25635;51.146;17.162;2023-07-22T08:26:28;99921.09;;;23.80;53.90
38806;BME280;25635;51.146;17.162;2023-07-22T08:29:00;99925.23;;;23.90;53.42
38806;BME280;25635;51.146;17.162;2023-07-22T08:31:26;99925.23;;;23.93;53.45
38806;BME280;25635;51.146;17.162;2023-07-22T08:33:52;99917.08;;;24.08;53.68
38806;BME280;25635;51.146;17.162;2023-07-22T08:36:17;99924.30;;;24.33;53.96
38806;BME280;25635;51.146;17.162;2023-07-22T08:38:43;99929.52;;;24.53;52.19
38806;BME280;25635;51.146;17.162;2023-07-22T08:41:16;99926.65;;;24.53;51.88
38806;BME280;25635;51.146;17.162;2023-07-22T08:43:45;99927.55;;;24.56;51.92
38806;BME280;25635;51.146;17.162;2023-07-22T08:46:12;99927.88;;;24.69;51.44
38806;BME280;25635;51.146;17.162;2023-07-22T08:48:41;99929.68;;;24.76;51.08
38806;BME280;25635;51.146;17.162;2023-07-22T08:51:15;99923.12;;;24.85;50.64
38806;BME280;25635;51.146;17.162;2023-07-22T08:53:44;99920.65;;;24.92;49.85
38806;BME280;25635;51.146;17.162;2023-07-22T08:56:11;99924.16;;;24.93;49.58
38806;BME280;25635;51.146;17.162;2023-07-22T08:58:38;99923.86;;;25.02;49.85
38806;BME280;25635;51.146;17.162;2023-07-22T09:01:05;99920.84;;;25.14;49.15
38806;BME280;25635;51.146;17.162;2023-07-22T09:03:32;99922.20;;;25.30;49.78
38806;BME280;25635;51.146;17.162;2023-07-22T09:05:58;99923.13;;;25.49;48.74
38806;BME280;25635;51.146;17.162;2023-07-22T09:08:25;99926.54;;;25.65;48.76
38806;BME280;25635;51.146;17.162;2023-07-22T09:10:51;99926.86;;;25.78;47.05
38806;BME280;25635;51.146;17.162;2023-07-22T09:13:18;99926.49;;;25.83;46.42
38806;BME280;25635;51.146;17.162;2023-07-22T09:15:45;99928.64;;;25.90;46.80
38806;BME280;25635;51.146;17.162;2023-07-22T09:18:13;99930.54;;;25.89;45.22
38806;BME280;25635;51.146;17.162;2023-07-22T09:20:40;99935.14;;;25.84;46.45
38806;BME280;25635;51.146;17.162;2023-07-22T09:23:08;99932.69;;;25.91;46.69
38806;BME280;25635;51.146;17.162;2023-07-22T09:25:34;99931.85;;;26.06;45.59
38806;BME280;25635;51.146;17.162;2023-07-22T09:28:00;99931.49;;;26.04;44.70
38806;BME280;25635;51.146;17.162;2023-07-22T09:30:35;99936.09;;;26.00;45.40
38806;BME280;25635;51.146;17.162;2023-07-22T09:33:03;99940.36;;;26.03;44.11
38806;BME280;25635;51.146;17.162;2023-07-22T09:35:46;99944.25;;;25.99;44.74
38806;BME280;25635;51.146;17.162;2023-07-22T09:38:12;99941.45;;;25.93;43.48
38806;BME280;25635;51.146;17.162;2023-07-22T09:40:41;99940.29;;;25.80;43.78
38806;BME280;25635;51.146;17.162;2023-07-22T09:43:10;99938.72;;;25.67;44.39
38806;BME280;25635;51.146;17.162;2023-07-22T09:45:40;99937.30;;;25.60;44.10
38806;BME280;25635;51.146;17.162;2023-07-22T09:48:11;99934.05;;;25.49;44.41
38806;BME280;25635;51.146;17.162;2023-07-22T09:50:37;99940.78;;;25.47;44.63
38806;BME280;25635;51.146;17.162;2023-07-22T09:53:04;99939.27;;;25.53;44.43
38806;BME280;25635;51.146;17.162;2023-07-22T09:55:32;99943.92;;;25.48;43.89
38806;BME280;25635;51.146;17.162;2023-07-22T09:58:03;99936.20;;;25.36;43.73
38806;BME280;25635;51.146;17.162;2023-07-22T10:00:36;99939.86;;;25.33;44.38
38806;BME280;25635;51.146;17.162;2023-07-22T10:03:03;99939.58;;;25.34;44.27
38806;BME280;25635;51.146;17.162;2023-07-22T10:05:34;99940.19;;;25.43;44.20
38806;BME280;25635;51.146;17.162;2023-07-22T10:08:02;99940.40;;;25.50;42.47
38806;BME280;25635;51.146;17.162;2023-07-22T10:12:58;99942.91;;;25.47;42.87
38806;BME280;25635;51.146;17.162;2023-07-22T10:15:27;99942.17;;;25.54;43.17
38806;BME280;25635;51.146;17.162;2023-07-22T10:17:55;99940.95;;;25.68;43.32
38806;BME280;25635;51.146;17.162;2023-07-22T10:20:22;99937.16;;;25.91;43.44
38806;BME280;25635;51.146;17.162;2023-07-22T10:22:49;99942.08;;;26.03;43.05
38806;BME280;25635;51.146;17.162;2023-07-22T10:25:17;99944.10;;;26.19;43.42
38806;BME280;25635;51.146;17.162;2023-07-22T10:27:44;99940.62;;;26.36;42.39
38806;BME280;25635;51.146;17.162;2023-07-22T10:30:12;99934.90;;;26.43;41.57
38806;BME280;25635;51.146;17.162;2023-07-22T10:32:46;99945.06;;;26.39;41.83
38806;BME280;25635;51.146;17.162;2023-07-22T10:38:13;99940.85;;;26.54;41.58
38806;BME280;25635;51.146;17.162;2023-07-22T10:40:47;99943.19;;;26.66;41.56
38806;BME280;25635;51.146;17.162;2023-07-22T10:43:16;99944.92;;;26.66;40.59
38806;BME280;25635;51.146;17.162;2023-07-22T10:45:50;99945.41;;;26.58;40.73
38806;BME280;25635;51.146;17.162;2023-07-22T10:48:17;99950.60;;;26.51;40.92
38806;BME280;25635;51.146;17.162;2023-07-22T10:50:47;99949.41;;;26.41;40.82
38806;BME280;25635;51.146;17.162;2023-07-22T10:53:14;99947.29;;;26.41;40.89
38806;BME280;25635;51.146;17.162;2023-07-22T11:01:31;99952.67;;;25.86;39.11
38806;BME280;25635;51.146;17.162;2023-07-22T11:06:33;99948.37;;;25.58;40.10
38806;BME280;25635;51.146;17.162;2023-07-22T11:08:59;99947.14;;;25.69;40.96
38806;BME280;25635;51.146;17.162;2023-07-22T11:11:36;99947.24;;;25.90;40.13
38806;BME280;25635;51.146;17.162;2023-07-22T11:14:17;99945.39;;;26.02;39.73
38806;BME280;25635;51.146;17.162;2023-07-22T11:16:46;99949.85;;;26.05;40.05
38806;BME280;25635;51.146;17.162;2023-07-22T11:19:14;99952.98;;;26.13;39.27
38806;BME280;25635;51.146;17.162;2023-07-22T11:21:41;99957.38;;;26.00;38.11
38806;BME280;25635;51.146;17.162;2023-07-22T11:24:07;99956.54;;;25.87;38.75
38806;BME280;25635;51.146;17.162;2023-07-22T11:26:34;99959.77;;;25.82;39.29
38806;BME280;25635;51.146;17.162;2023-07-22T11:29:01;99953.77;;;25.81;39.60
38806;BME280;25635;51.146;17.162;2023-07-22T11:31:35;99952.64;;;25.86;39.47
38806;BME280;25635;51.146;17.162;2023-07-22T11:34:03;99948.56;;;25.86;39.77
38806;BME280;25635;51.146;17.162;2023-07-22T11:36:29;99945.02;;;25.85;38.46
38806;BME280;25635;51.146;17.162;2023-07-22T11:39:07;99941.43;;;25.83;39.75
38806;BME280;25635;51.146;17.162;2023-07-22T11:41:34;99942.88;;;25.93;39.12
38806;BME280;25635;51.146;17.162;2023-07-22T11:44:02;99941.59;;;25.89;38.96
38806;BME280;25635;51.146;17.162;2023-07-22T11:46:34;99938.38;;;25.89;39.01
38806;BME280;25635;51.146;17.162;2023-07-22T11:49:01;99941.02;;;25.84;38.22
38806;BME280;25635;51.146;17.162;2023-07-22T11:51:28;99940.41;;;25.66;38.93
38806;BME280;25635;51.146;17.162;2023-07-22T11:53:55;99941.80;;;25.62;39.19
38806;BME280;25635;51.146;17.162;2023-07-22T11:56:23;99946.35;;;25.56;38.73
38806;BME280;25635;51.146;17.162;2023-07-22T11:58:53;99950.30;;;25.41;39.11
38806;BME280;25635;51.146;17.162;2023-07-22T12:01:20;99949.80;;;25.34;39.61
38806;BME280;25635;51.146;17.162;2023-07-22T12:03:46;99945.80;;;25.39;39.98
38806;BME280;25635;51.146;17.162;2023-07-22T12:06:13;99949.52;;;25.49;39.85
38806;BME280;25635;51.146;17.162;2023-07-22T12:08:46;99945.58;;;25.47;39.75
38806;BME280;25635;51.146;17.162;2023-07-22T12:11:23;99943.20;;;25.50;40.03
38806;BME280;25635;51.146;17.162;2023-07-22T12:14:12;99942.48;;;25.53;39.97
38806;BME280;25635;51.146;17.162;2023-07-22T12:16:42;99939.77;;;25.65;40.05
38806;BME280;25635;51.146;17.162;2023-07-22T12:19:09;99934.30;;;25.81;39.92
38806;BME280;25635;51.146;17.162;2023-07-22T12:21:35;99928.70;;;25.92;39.45
38806;BME280;25635;51.146;17.162;2023-07-22T12:24:01;99933.11;;;25.99;38.81
38806;BME280;25635;51.146;17.162;2023-07-22T12:26:30;99933.91;;;25.91;38.07
38806;BME280;25635;51.146;17.162;2023-07-22T12:28:56;99935.50;;;25.86;38.94
38806;BME280;25635;51.146;17.162;2023-07-22T12:31:22;99936.19;;;25.92;38.91
38806;BME280;25635;51.146;17.162;2023-07-22T12:33:48;99935.45;;;25.92;38.34
38806;BME280;25635;51.146;17.162;2023-07-22T12:36:14;99928.16;;;25.97;39.29
38806;BME280;25635;51.146;17.162;2023-07-22T12:38:40;99927.63;;;26.18;39.22
38806;BME280;25635;51.146;17.162;2023-07-22T12:41:06;99921.07;;;26.39;38.37
38806;BME280;25635;51.146;17.162;2023-07-22T12:43:32;99917.39;;;26.50;37.67
38806;BME280;25635;51.146;17.162;2023-07-22T12:45:58;99922.96;;;26.50;37.34
38806;BME280;25635;51.146;17.162;2023-07-22T12:48:24;99928.58;;;26.46;37.73
38806;BME280;25635;51.146;17.162;2023-07-22T12:50:51;99926.50;;;26.50;38.20
38806;BME280;25635;51.146;17.162;2023-07-22T12:53:17;99928.05;;;26.53;37.67
38806;BME280;25635;51.146;17.162;2023-07-22T12:55:43;99927.19;;;26.51;37.45
38806;BME280;25635;51.146;17.162;2023-07-22T12:58:09;99928.64;;;26.43;36.98
38806;BME280;25635;51.146;17.162;2023-07-22T13:00:35;99925.58;;;26.34;36.94
38806;BME280;25635;51.146;17.162;2023-07-22T13:03:01;99921.75;;;26.31;37.11
38806;BME280;25635;51.146;17.162;2023-07-22T13:05:28;99922.77;;;26.29;36.99
38806;BME280;25635;51.146;17.162;2023-07-22T13:07:54;99919.15;;;26.19;36.00
38806;BME280;25635;51.146;17.162;2023-07-22T13:10:20;99914.77;;;26.13;37.18
38806;BME280;25635;51.146;17.162;2023-07-22T13:12:48;99916.38;;;26.20;36.94
38806;BME280;25635;51.146;17.162;2023-07-22T13:15:13;99921.16;;;26.25;36.23
38806;BME280;25635;51.146;17.162;2023-07-22T13:17:39;99920.66;;;26.17;36.12
38806;BME280;25635;51.146;17.162;2023-07-22T13:20:06;99917.27;;;26.13;36.64
38806;BME280;25635;51.146;17.162;2023-07-22T13:22:40;99917.02;;;26.18;36.50
38806;BME280;25635;51.146;17.162;2023-07-22T13:25:06;99918.05;;;26.17;36.36
38806;BME280;25635;51.146;17.162;2023-07-22T13:27:32;99915.02;;;26.21;36.18
38806;BME280;25635;51.146;17.162;2023-07-22T13:29:58;99908.71;;;26.31;35.94
38806;BME280;25635;51.146;17.162;2023-07-22T13:32:24;99907.98;;;26.47;35.76
38806;BME280;25635;51.146;17.162;2023-07-22T13:34:50;99909.27;;;26.51;35.29
38806;BME280;25635;51.146;17.162;2023-07-22T13:37:16;99910.14;;;26.44;35.39
38806;BME280;25635;51.146;17.162;2023-07-22T13:39:42;99910.45;;;26.43;34.98
38806;BME280;25635;51.146;17.162;2023-07-22T13:42:08;99907.31;;;26.56;35.66
38806;BME280;25635;51.146;17.162;2023-07-22T13:44:34;99901.52;;;26.66;35.18
38806;BME280;25635;51.146;17.162;2023-07-22T13:47:00;99903.38;;;26.67;35.31
38806;BME280;25635;51.146;17.162;2023-07-22T13:49:26;99901.61;;;26.69;35.22
38806;BME280;25635;51.146;17.162;2023-07-22T13:51:52;99901.33;;;26.75;35.17
38806;BME280;25635;51.146;17.162;2023-07-22T13:54:18;99895.83;;;26.79;35.28
38806;BME280;25635;51.146;17.162;2023-07-22T13:56:45;99900.83;;;26.81;34.90
38806;BME280;25635;51.146;17.162;2023-07-22T13:59:13;99907.28;;;26.92;34.94
38806;BME280;25635;51.146;17.162;2023-07-22T14:01:39;99901.08;;;27.07;34.45
38806;BME280;25635;51.146;17.162;2023-07-22T14:04:05;99907.77;;;27.13;34.71
38806;BME280;25635;51.146;17.162;2023-07-22T14:06:31;99902.92;;;27.15;34.27
38806;BME280;25635;51.146;17.162;2023-07-22T14:08:58;99902.67;;;27.16;34.47
38806;BME280;25635;51.146;17.162;2023-07-22T14:11:25;99909.03;;;27.14;34.68
38806;BME280;25635;51.146;17.162;2023-07-22T14:13:51;99906.36;;;27.17;34.45
38806;BME280;25635;51.146;17.162;2023-07-22T14:16:20;99905.11;;;27.15;34.74
38806;BME280;25635;51.146;17.162;2023-07-22T14:18:46;99899.12;;;27.20;34.72
38806;BME280;25635;51.146;17.162;2023-07-22T14:21:12;99904.23;;;27.21;34.66
38806;BME280;25635;51.146;17.162;2023-07-22T14:23:38;99902.36;;;27.17;34.85
38806;BME280;25635;51.146;17.162;2023-07-22T14:26:03;99904.84;;;27.15;34.93
38806;BME280;25635;51.146;17.162;2023-07-22T14:28:29;99904.95;;;27.08;34.13
38806;BME280;25635;51.146;17.162;2023-07-22T14:30:55;99894.72;;;27.04;34.69
38806;BME280;25635;51.146;17.162;2023-07-22T14:33:21;99893.33;;;27.03;34.91
38806;BME280;25635;51.146;17.162;2023-07-22T14:35:47;99889.98;;;27.02;34.60
38806;BME280;25635;51.146;17.162;2023-07-22T14:38:13;99889.17;;;26.93;34.52
38806;BME280;25635;51.146;17.162;2023-07-22T14:40:40;99887.97;;;26.83;34.76
38806;BME280;25635;51.146;17.162;2023-07-22T14:43:06;99886.65;;;26.82;35.11
38806;BME280;25635;51.146;17.162;2023-07-22T14:45:32;99887.57;;;26.90;35.27
38806;BME280;25635;51.146;17.162;2023-07-22T14:47:58;99887.38;;;26.88;34.68
38806;BME280;25635;51.146;17.162;2023-07-22T14:50:25;99891.11;;;26.84;35.15
38806;BME280;25635;51.146;17.162;2023-07-22T14:52:51;99887.97;;;26.81;34.73
38806;BME280;25635;51.146;17.162;2023-07-22T14:55:17;99888.31;;;26.75;34.51
38806;BME280;25635;51.146;17.162;2023-07-22T14:57:44;99887.98;;;26.61;34.71
38806;BME280;25635;51.146;17.162;2023-07-22T15:00:12;99895.34;;;26.48;34.72
38806;BME280;25635;51.146;17.162;2023-07-22T15:02:38;99893.73;;;26.37;34.67
38806;BME280;25635;51.146;17.162;2023-07-22T15:05:05;99892.63;;;26.33;34.68
38806;BME280;25635;51.146;17.162;2023-07-22T15:07:31;99890.07;;;26.25;34.92